Terminal Aerodrome Forecast
Issued by NWS Cleveland, OH

Home | Current Version | Previous Version | Graphics & Text | Print | Product List | Glossary On
Versions: 1 2 3 4 5 6 7 8 9 10 11 12 13 14 15 16 17
170
FTUS41 KCLE 200727 AAA
TAFYNG
TAF AMD
KYNG 200727Z 2007/2106 VRB05KT 3SM BR OVC002
     FM201000 17007KT 5SM BR SCT002 OVC050
     FM201400 19010KT P6SM SCT025 BKN050
     FM201700 22012G20KT P6SM BKN050
     FM210100 25012G20KT 5SM -SHRA OVC035
      TEMPO 2101/2104 2SM TSRA OVC020CB=

USA.gov is the U.S. government's official web portal to all federal, state and local government web resources and services.